Etusivu
METAR-TAF:

METAR-TAF

Lentoasemat :

Delta, Utah, Yhdysvallat

Leveyspiiri: 39-22-50N, Pituuspiiri: 112-30-28W, korkeus merenpinnasta: 1451 m

Tämänhetkinen sää

Tämä raportti tehtiin 33 minuuttia sitten, kello 21.15 UTC
Tuuli 12 kn kaakosta puuskistuen 16 kn:hen
Lämpötila 18°C
Kosteus 37%
Ilmanpaine 1012 hPa
Näkyvyys: 16.1 km
Hajanaisia pilviä 12000 ft:n korkeudessa

METAR: KDTA 252115Z AUTO 14012G16KT 10SM SCT120 18/03 A2987 RMK AO1

Aika: 15:48 (21:48 UTC)


TAF: puuttuu

Säähavainnot ja -ennusteet yli 4000 lentoasemalta (METAR- ja TAF-raportit).

Käytössä olevat sääasemat on merkitty karttaan keltaisilla ja punaisilla pisteillä.

Aseta hiiri pisteen päälle nähdäksesi sääaseman nimen.

Klikkaa sitten nähdäksesi säähavainnot ja -ennusteet.

Kartan vaihtaminen: klikkaa mustalla rastilla varustettuja vihreitä pisteitä, niin voit zoomata sisään; viivalla varustettua vihreää pistettä, niin voit zoomata ulos tai vihreitä nuolia, niin pääset viereisille kartoille.


METAR-TAF: